Time;durP1;ratioP1;P1;durP2;ratioP2;P2;SDS_P1;SDS_P2;PMS_P1;PMS_P2;Temp;Humidity;BMP_temperature;BMP_pressure;BME280_temperature;BME280_humidity;BME280_pressure;Samples;Min_cycle;Max_cycle;Signal;HPM_P1;HPM_P2
2022/10/15 00:00:46;;;;;;;15.27;6.57;;;;;;;14.37;100.00;100362.47;5053287;28;20469;-70
2022/10/15 00:03:13;;;;;;;21.07;7.33;;;;;;;14.39;100.00;100359.41;5053614;28;20438;-69
2022/10/15 00:05:40;;;;;;;14.83;7.73;;;;;;;14.41;100.00;100357.16;5052031;28;20866;-70
2022/10/15 00:08:09;;;;;;;13.27;6.50;;;;;;;14.37;100.00;100343.38;5053491;28;20489;-69
2022/10/15 00:10:36;;;;;;;14.47;7.10;;;;;;;14.29;100.00;100346.97;5053097;28;20454;-70
2022/10/15 00:13:03;;;;;;;15.03;7.90;;;;;;;14.28;100.00;100337.19;5050118;28;20470;-69
2022/10/15 00:15:30;;;;;;;13.90;7.40;;;;;;;14.26;100.00;100334.03;5052636;28;20486;-69
2022/10/15 00:17:56;;;;;;;13.53;6.00;;;;;;;14.26;100.00;100331.31;5052131;28;20458;-69
2022/10/15 00:20:23;;;;;;;21.27;7.00;;;;;;;14.24;100.00;100340.91;5053427;28;20446;-69
2022/10/15 00:22:49;;;;;;;15.63;7.23;;;;;;;14.20;100.00;100340.78;5052142;28;20462;-69
2022/10/15 00:25:17;;;;;;;14.20;7.30;;;;;;;14.21;100.00;100339.66;5053195;28;20520;-69
2022/10/15 00:27:43;;;;;;;11.90;6.67;;;;;;;14.21;100.00;100334.22;5052565;28;20458;-69
2022/10/15 00:30:11;;;;;;;11.23;6.30;;;;;;;14.22;100.00;100321.41;5052177;28;20551;-69
2022/10/15 00:32:37;;;;;;;16.20;8.00;;;;;;;14.16;100.00;100333.59;5052382;28;20511;-69
2022/10/15 00:35:04;;;;;;;19.40;7.57;;;;;;;14.16;100.00;100328.94;5053069;28;20535;-69
2022/10/15 00:37:31;;;;;;;17.70;7.77;;;;;;;14.19;100.00;100325.56;5051570;28;20462;-69
2022/10/15 00:39:57;;;;;;;15.87;7.60;;;;;;;14.18;100.00;100325.91;5051832;28;20532;-69
2022/10/15 00:42:25;;;;;;;15.70;7.47;;;;;;;14.20;100.00;100321.72;5052485;28;20492;-70
2022/10/15 00:44:54;;;;;;;14.63;7.40;;;;;;;14.21;100.00;100320.59;5052215;28;20494;-70
2022/10/15 00:47:27;;;;;;;13.80;7.03;;;;;;;14.12;100.00;100319.84;5052334;28;20951;-70
2022/10/15 00:50:03;;;;;;;14.83;7.03;;;;;;;14.07;100.00;100314.59;5053056;28;20462;-70
2022/10/15 00:52:38;;;;;;;15.83;8.17;;;;;;;14.03;100.00;100319.09;5052173;28;20959;-70
2022/10/15 00:55:08;;;;;;;13.70;7.13;;;;;;;14.05;100.00;100303.25;5052083;28;20505;-70
2022/10/15 00:57:37;;;;;;;18.60;7.97;;;;;;;14.09;100.00;100301.47;5051836;28;20979;-70
2022/10/15 01:00:08;;;;;;;13.03;7.03;;;;;;;14.01;100.00;100300.38;5052963;28;20438;-70
2022/10/15 01:02:35;;;;;;;14.83;7.60;;;;;;;14.02;100.00;100306.63;5051042;28;20458;-70
2022/10/15 01:05:02;;;;;;;14.93;7.97;;;;;;;14.05;100.00;100300.53;5052463;28;20462;-70
2022/10/15 01:07:29;;;;;;;14.40;7.70;;;;;;;14.06;100.00;100293.94;5047702;28;20450;-71
2022/10/15 01:09:55;;;;;;;17.77;8.67;;;;;;;14.09;100.00;100285.13;5053914;28;20474;-70
2022/10/15 01:12:32;;;;;;;15.30;7.50;;;;;;;14.13;100.00;100286.84;5056903;28;20442;-70
2022/10/15 01:15:08;;;;;;;15.80;8.13;;;;;;;14.17;100.00;100289.72;5055805;28;20481;-70
2022/10/15 01:17:42;;;;;;;13.83;8.30;;;;;;;14.18;100.00;100288.56;5056191;28;20450;-70
2022/10/15 01:20:38;;;;;;;17.70;8.83;;;;;;;14.19;100.00;100284.72;5055535;28;20454;-71
2022/10/15 01:23:26;;;;;;;13.20;5.97;;;;;;;14.24;100.00;100281.00;5056676;28;20434;-71
2022/10/15 01:26:07;;;;;;;15.70;7.67;;;;;;;14.21;100.00;100277.03;5055846;28;20869;-70
2022/10/15 01:28:46;;;;;;;13.47;5.90;;;;;;;14.24;100.00;100270.88;5048385;28;20988;-71
2022/10/15 01:31:21;;;;;;;19.33;7.87;;;;;;;14.22;100.00;100267.72;5056589;28;20484;-71
2022/10/15 01:33:56;;;;;;;11.43;6.50;;;;;;;14.25;100.00;100266.22;5055470;28;20879;-71
2022/10/15 01:36:32;;;;;;;18.43;8.57;;;;;;;14.25;100.00;100267.03;5056556;28;20426;-70
2022/10/15 01:39:05;;;;;;;15.20;6.70;;;;;;;14.22;100.00;100256.81;5055613;28;20465;-70
2022/10/15 01:41:40;;;;;;;14.37;6.50;;;;;;;14.25;100.00;100260.78;5056374;28;20484;-70
2022/10/15 01:44:11;;;;;;;14.13;7.50;;;;;;;14.30;100.00;100264.13;5053555;28;20489;-70
2022/10/15 01:46:43;;;;;;;13.90;7.33;;;;;;;14.29;100.00;100262.50;5055690;28;20453;-70
2022/10/15 01:49:13;;;;;;;17.17;7.70;;;;;;;14.32;100.00;100261.06;5055587;28;20478;-72
2022/10/15 01:51:42;;;;;;;12.47;6.97;;;;;;;14.30;100.00;100255.16;5055389;28;20426;-70
2022/10/15 01:54:13;;;;;;;15.50;6.90;;;;;;;14.29;100.00;100257.06;5054483;28;20486;-72
2022/10/15 01:56:41;;;;;;;15.77;7.83;;;;;;;14.26;100.00;100256.94;5055237;28;20434;-69
2022/10/15 01:59:09;;;;;;;15.73;7.53;;;;;;;14.19;100.00;100254.75;5053833;28;20826;-69
2022/10/15 02:01:36;;;;;;;12.10;6.43;;;;;;;14.19;100.00;100243.84;5055612;28;20445;-69
2022/10/15 02:04:18;;;;;;;14.17;7.50;;;;;;;14.16;100.00;100241.78;5055609;28;20466;-68
2022/10/15 02:06:48;;;;;;;15.00;6.90;;;;;;;14.15;100.00;100234.75;5055233;28;20484;-69
2022/10/15 02:09:21;;;;;;;14.80;8.07;;;;;;;14.20;100.00;100244.63;5055751;28;21017;-68
2022/10/15 02:11:59;;;;;;;14.30;7.03;;;;;;;14.21;100.00;100241.59;5053569;28;20462;-69
2022/10/15 02:14:33;;;;;;;15.60;8.10;;;;;;;14.23;100.00;100238.53;5055768;28;20465;-69
2022/10/15 02:17:06;;;;;;;15.40;8.10;;;;;;;14.24;100.00;100243.63;5055082;28;20488;-69
2022/10/15 02:19:43;;;;;;;13.30;7.10;;;;;;;14.27;100.00;100237.53;5054189;28;20490;-69
2022/10/15 02:22:14;;;;;;;15.60;7.37;;;;;;;14.29;100.00;100237.97;5055023;28;20475;-69
2022/10/15 02:24:45;;;;;;;13.07;6.97;;;;;;;14.26;100.00;100241.41;5055561;28;20527;-69
2022/10/15 02:27:15;;;;;;;12.47;7.17;;;;;;;14.24;100.00;100240.91;5054025;28;20955;-69
2022/10/15 02:29:45;;;;;;;14.50;7.30;;;;;;;14.21;100.00;100236.16;5054732;28;20539;-68
2022/10/15 02:32:15;;;;;;;18.97;6.03;;;;;;;14.23;100.00;100242.06;5055453;28;20807;-68
2022/10/15 02:34:45;;;;;;;13.83;7.50;;;;;;;14.26;100.00;100238.66;5054284;28;20982;-69
2022/10/15 02:37:13;;;;;;;14.80;7.60;;;;;;;14.26;100.00;100225.03;5053269;28;20458;-69
2022/10/15 02:39:40;;;;;;;17.43;8.97;;;;;;;14.29;100.00;100229.00;5054226;28;20442;-69
2022/10/15 02:42:06;;;;;;;11.90;6.13;;;;;;;14.29;100.00;100224.34;5053817;28;20465;-69
2022/10/15 02:44:33;;;;;;;14.77;7.47;;;;;;;14.31;100.00;100219.38;5054693;28;20474;-69
2022/10/15 02:46:59;;;;;;;13.40;7.27;;;;;;;14.31;100.00;100222.13;5054771;28;20466;-69
2022/10/15 02:49:26;;;;;;;14.93;7.30;;;;;;;14.33;100.00;100214.38;5054090;28;20513;-69
2022/10/15 02:51:54;;;;;;;12.53;6.90;;;;;;;14.34;100.00;100215.19;5054474;28;20473;-69
2022/10/15 02:54:20;;;;;;;15.10;7.20;;;;;;;14.33;100.00;100219.03;5053852;28;20485;-68
2022/10/15 02:56:47;;;;;;;13.33;6.13;;;;;;;14.31;100.00;100221.31;5054960;28;20450;-69
2022/10/15 02:59:13;;;;;;;14.17;7.27;;;;;;;14.27;100.00;100213.00;5054204;28;20485;-70
2022/10/15 03:01:40;;;;;;;16.53;7.90;;;;;;;14.27;100.00;100218.47;5053965;28;20469;-70
2022/10/15 03:04:06;;;;;;;14.43;6.67;;;;;;;14.25;100.00;100215.25;5054166;28;20548;-69
2022/10/15 03:06:33;;;;;;;14.60;8.00;;;;;;;14.26;100.00;100216.88;5054512;28;20962;-70
2022/10/15 03:09:00;;;;;;;22.03;7.87;;;;;;;14.21;100.00;100211.63;5053191;28;20482;-70
2022/10/15 03:11:27;;;;;;;16.50;7.50;;;;;;;14.20;100.00;100210.03;5054730;28;20492;-70
2022/10/15 03:13:53;;;;;;;13.40;7.40;;;;;;;14.21;100.00;100205.38;5054231;28;20458;-70
2022/10/15 03:16:20;;;;;;;13.33;6.90;;;;;;;14.20;100.00;100214.69;5054554;28;21007;-71
2022/10/15 03:18:47;;;;;;;18.13;7.93;;;;;;;14.22;100.00;100213.22;5053660;28;20450;-71
2022/10/15 03:21:13;;;;;;;16.90;8.43;;;;;;;14.23;100.00;100208.56;5054491;28;20876;-70
2022/10/15 03:23:40;;;;;;;13.33;7.20;;;;;;;14.26;100.00;100199.72;5053032;28;20951;-71
2022/10/15 03:26:08;;;;;;;14.93;6.60;;;;;;;14.23;100.00;100198.47;5052918;28;20855;-70
2022/10/15 03:28:35;;;;;;;13.57;6.50;;;;;;;14.18;100.00;100195.94;5053489;28;20489;-70
2022/10/15 03:31:01;;;;;;;21.53;7.73;;;;;;;14.10;100.00;100188.66;5053230;28;20430;-70
2022/10/15 03:33:28;;;;;;;18.67;8.47;;;;;;;14.06;100.00;100198.63;5053356;28;20474;-70
2022/10/15 03:35:56;;;;;;;15.30;7.23;;;;;;;14.08;100.00;100196.38;5054138;28;20503;-70
2022/10/15 03:38:22;;;;;;;13.87;7.97;;;;;;;14.12;100.00;100191.81;5052813;28;20454;-71
2022/10/15 03:40:49;;;;;;;13.60;6.87;;;;;;;14.17;100.00;100188.13;5053839;28;20795;-71
2022/10/15 03:43:16;;;;;;;15.97;7.63;;;;;;;14.22;100.00;100194.16;5053044;28;20455;-70
2022/10/15 03:45:43;;;;;;;12.53;5.80;;;;;;;14.24;100.00;100189.16;5078614;22;20502;-68
2022/10/15 03:48:09;;;;;;;18.03;8.10;;;;;;;14.21;100.00;100192.56;5052591;28;20877;-68
2022/10/15 03:50:36;;;;;;;12.00;6.40;;;;;;;14.24;100.00;100196.53;5053581;28;20478;-68
2022/10/15 03:53:03;;;;;;;15.80;7.50;;;;;;;14.23;100.00;100197.66;5051692;28;20458;-69
2022/10/15 03:55:30;;;;;;;14.57;6.77;;;;;;;14.23;100.00;100184.06;5053476;28;20520;-68
2022/10/15 03:57:56;;;;;;;13.60;7.20;;;;;;;14.23;100.00;100186.78;5057659;28;20492;-68
2022/10/15 04:00:24;;;;;;;16.20;7.63;;;;;;;14.22;100.00;100191.44;5073729;28;20441;-68
2022/10/15 04:02:50;;;;;;;15.37;7.30;;;;;;;14.21;100.00;100186.28;5068997;28;20458;-69
2022/10/15 04:05:17;;;;;;;14.30;6.40;;;;;;;14.20;100.00;100188.22;5053559;28;20462;-67
2022/10/15 04:07:43;;;;;;;15.73;6.50;;;;;;;14.18;100.00;100187.78;5052139;28;20512;-68
2022/10/15 04:10:10;;;;;;;13.53;6.63;;;;;;;14.17;100.00;100190.84;5053221;28;20889;-68
2022/10/15 04:12:36;;;;;;;13.30;7.10;;;;;;;14.07;100.00;100194.75;5053207;28;20466;-68
2022/10/15 04:15:03;;;;;;;13.30;6.57;;;;;;;14.06;100.00;100201.34;5053501;28;20524;-68
2022/10/15 04:17:31;;;;;;;12.40;6.67;;;;;;;14.06;100.00;100198.63;5051835;28;20462;-68
2022/10/15 04:19:57;;;;;;;17.03;6.73;;;;;;;14.05;100.00;100197.81;5053447;28;20434;-68
2022/10/15 04:22:24;;;;;;;16.07;6.93;;;;;;;14.04;100.00;100190.00;5052457;28;20493;-68
2022/10/15 04:24:50;;;;;;;14.93;7.03;;;;;;;14.05;100.00;100197.81;5053428;28;20474;-68
2022/10/15 04:27:17;;;;;;;12.60;6.67;;;;;;;14.04;100.00;100195.44;5052263;28;20466;-68
2022/10/15 04:29:43;;;;;;;11.73;6.70;;;;;;;14.03;100.00;100196.56;5051966;28;20519;-68
2022/10/15 04:32:13;;;;;;;18.17;7.60;;;;;;;14.00;100.00;100192.59;5052406;28;20469;-69
2022/10/15 04:34:41;;;;;;;12.67;6.87;;;;;;;13.95;100.00;100194.72;5053442;28;20938;-69
2022/10/15 04:37:07;;;;;;;14.20;6.77;;;;;;;13.91;100.00;100196.50;5051550;28;20469;-68
2022/10/15 04:39:34;;;;;;;16.50;7.73;;;;;;;13.93;100.00;100199.69;5052948;28;20450;-68
2022/10/15 04:42:00;;;;;;;14.40;6.60;;;;;;;13.96;100.00;100204.47;5050958;28;20469;-68
2022/10/15 04:44:27;;;;;;;12.33;6.80;;;;;;;13.96;100.00;100208.00;5053062;28;20445;-68
2022/10/15 04:46:53;;;;;;;16.87;7.93;;;;;;;13.99;100.00;100209.25;5051571;28;20486;-69
2022/10/15 04:49:19;;;;;;;17.10;8.10;;;;;;;14.03;100.00;100211.00;5053005;28;20486;-67
2022/10/15 04:51:47;;;;;;;15.83;8.50;;;;;;;14.05;100.00;100207.94;5052675;28;20469;-69
2022/10/15 04:54:14;;;;;;;13.27;6.73;;;;;;;14.05;100.00;100210.66;5052656;28;20947;-69
2022/10/15 04:56:40;;;;;;;14.57;6.93;;;;;;;14.09;100.00;100206.13;5051674;28;21018;-67
2022/10/15 04:59:08;;;;;;;14.90;6.80;;;;;;;14.10;100.00;100207.72;5050963;28;20466;-68
2022/10/15 05:01:34;;;;;;;20.70;7.97;;;;;;;14.13;100.00;100210.56;5050983;28;20458;-68
2022/10/15 05:04:01;;;;;;;13.87;7.20;;;;;;;14.14;100.00;100204.00;5052265;28;20476;-69
2022/10/15 05:06:27;;;;;;;15.07;7.67;;;;;;;14.09;100.00;100208.84;5052411;28;20473;-68
2022/10/15 05:08:55;;;;;;;12.33;6.80;;;;;;;14.00;100.00;100208.13;5051998;28;20462;-68
2022/10/15 05:11:23;;;;;;;14.00;6.30;;;;;;;13.96;100.00;100204.47;5052399;28;20536;-68
2022/10/15 05:13:50;;;;;;;13.60;6.67;;;;;;;13.89;100.00;100207.72;5052510;28;20462;-67
2022/10/15 05:16:18;;;;;;;14.37;7.00;;;;;;;13.86;100.00;100211.13;5051575;28;20490;-68
2022/10/15 05:18:46;;;;;;;21.47;8.20;;;;;;;13.84;100.00;100202.47;5051864;28;20465;-68
2022/10/15 05:21:13;;;;;;;16.10;6.70;;;;;;;13.84;100.00;100203.28;5051752;28;20463;-68
2022/10/15 05:23:40;;;;;;;13.00;6.77;;;;;;;13.83;100.00;100204.41;5052778;28;20442;-68
2022/10/15 05:26:12;;;;;;;17.33;7.20;;;;;;;13.79;100.00;100208.91;5051556;28;20486;-67
2022/10/15 05:28:39;;;;;;;13.83;6.50;;;;;;;13.75;100.00;100207.19;5052797;28;20434;-68
2022/10/15 05:31:06;;;;;;;11.73;6.70;;;;;;;13.69;100.00;100209.31;5051641;28;20503;-68
2022/10/15 05:33:33;;;;;;;13.30;6.60;;;;;;;13.62;100.00;100209.84;5050760;28;20682;-69
2022/10/15 05:36:09;;;;;;;12.30;6.47;;;;;;;13.59;100.00;100218.69;5051587;28;20481;-68
2022/10/15 05:38:35;;;;;;;16.43;7.43;;;;;;;13.57;100.00;100225.56;5052654;28;20518;-68
2022/10/15 05:41:02;;;;;;;20.03;7.87;;;;;;;13.53;100.00;100230.88;5051872;28;20508;-68
2022/10/15 05:43:29;;;;;;;15.53;6.17;;;;;;;13.45;100.00;100229.00;5052226;28;20944;-68
2022/10/15 05:45:56;;;;;;;13.40;7.20;;;;;;;13.42;100.00;100226.16;5051027;28;20490;-67
2022/10/15 05:48:23;;;;;;;13.27;7.00;;;;;;;13.38;100.00;100228.72;5052514;28;20450;-68
2022/10/15 05:50:49;;;;;;;17.37;7.00;;;;;;;13.34;100.00;100223.13;5051620;28;20489;-68
2022/10/15 05:53:15;;;;;;;12.33;6.70;;;;;;;13.28;100.00;100232.63;5052388;28;20449;-68
2022/10/15 05:55:42;;;;;;;10.53;5.60;;;;;;;13.24;100.00;100230.88;5054576;28;20482;-68
2022/10/15 05:58:08;;;;;;;20.70;7.00;;;;;;;13.21;100.00;100231.50;5053546;28;20496;-70
2022/10/15 06:00:38;;;;;;;16.40;6.80;;;;;;;13.19;100.00;100236.44;5054710;28;20838;-68
2022/10/15 06:03:04;;;;;;;15.17;6.83;;;;;;;13.13;100.00;100244.00;5055983;28;20450;-69
2022/10/15 06:05:32;;;;;;;14.10;6.40;;;;;;;13.11;100.00;100238.09;5054682;28;20481;-68
2022/10/15 06:07:58;;;;;;;18.70;5.80;;;;;;;13.08;100.00;100241.47;5055186;28;20458;-69
2022/10/15 06:10:27;;;;;;;13.60;6.47;;;;;;;13.06;100.00;100249.16;5054118;28;20486;-69
2022/10/15 06:12:53;;;;;;;13.33;6.87;;;;;;;13.03;100.00;100239.72;5055826;28;20581;-69
2022/10/15 06:15:20;;;;;;;17.50;7.80;;;;;;;13.05;100.00;100248.34;5054306;28;20486;-68
2022/10/15 06:17:47;;;;;;;14.13;6.00;;;;;;;13.01;100.00;100252.03;5055818;28;20438;-69
2022/10/15 06:20:14;;;;;;;15.40;7.63;;;;;;;13.01;100.00;100257.47;5054649;28;20531;-68
2022/10/15 06:22:40;;;;;;;14.63;7.90;;;;;;;13.04;100.00;100262.28;5055731;28;20539;-67
2022/10/15 06:25:08;;;;;;;16.30;7.90;;;;;;;13.06;100.00;100257.31;5050463;28;20482;-67
2022/10/15 06:27:34;;;;;;;12.23;6.43;;;;;;;13.03;100.00;100264.19;5055219;28;20824;-66
2022/10/15 06:30:01;;;;;;;13.53;6.87;;;;;;;13.09;100.00;100262.09;5053290;28;20533;-67
2022/10/15 06:32:27;;;;;;;11.10;6.87;;;;;;;13.19;100.00;100269.09;5053859;28;20458;-68
2022/10/15 06:34:55;;;;;;;15.23;7.37;;;;;;;13.23;100.00;100259.97;5053938;28;20494;-68
2022/10/15 06:37:22;;;;;;;13.00;7.67;;;;;;;13.29;100.00;100263.34;5054566;28;20462;-68
2022/10/15 06:39:48;;;;;;;15.73;8.20;;;;;;;13.28;100.00;100267.97;5053231;28;20465;-71
2022/10/15 06:42:15;;;;;;;17.20;6.87;;;;;;;13.26;100.00;100267.50;5053183;28;20457;-69
2022/10/15 06:44:41;;;;;;;13.20;6.23;;;;;;;13.29;100.00;100274.22;5055129;28;20473;-68
2022/10/15 06:47:08;;;;;;;15.60;6.33;;;;;;;13.32;100.00;100273.53;5054594;28;20433;-69
2022/10/15 06:49:34;;;;;;;13.30;6.67;;;;;;;13.40;100.00;100277.34;5054019;28;20458;-69
2022/10/15 06:52:02;;;;;;;17.60;6.77;;;;;;;13.51;100.00;100287.56;5054119;28;20446;-69
2022/10/15 06:54:28;;;;;;;13.23;7.07;;;;;;;13.65;100.00;100281.88;5054036;28;20868;-68
2022/10/15 06:56:54;;;;;;;15.47;6.97;;;;;;;13.76;100.00;100290.44;5054873;28;20462;-69
2022/10/15 06:59:21;;;;;;;17.93;6.90;;;;;;;13.87;100.00;100295.19;5052990;28;20462;-69
2022/10/15 07:01:48;;;;;;;12.50;7.20;;;;;;;13.98;100.00;100295.59;5053450;28;20486;-69
2022/10/15 07:04:14;;;;;;;14.63;6.40;;;;;;;14.08;100.00;100294.41;5053710;28;20469;-69
2022/10/15 07:06:41;;;;;;;14.00;7.50;;;;;;;14.20;100.00;100299.91;5054522;28;20470;-70
2022/10/15 07:09:09;;;;;;;12.60;6.70;;;;;;;14.28;100.00;100309.97;5052445;28;20975;-68
2022/10/15 07:11:35;;;;;;;17.43;6.93;;;;;;;14.32;100.00;100310.88;5054945;28;20478;-69
2022/10/15 07:14:01;;;;;;;16.83;7.60;;;;;;;14.37;100.00;100313.41;5052712;28;20524;-69
2022/10/15 07:16:28;;;;;;;12.07;6.27;;;;;;;14.42;100.00;100317.84;5054522;28;20462;-68
2022/10/15 07:18:54;;;;;;;13.00;6.57;;;;;;;14.46;100.00;100315.25;5053655;28;20470;-69
2022/10/15 07:21:20;;;;;;;11.43;5.13;;;;;;;14.50;100.00;100311.56;5052307;28;20458;-70
2022/10/15 07:23:47;;;;;;;10.60;6.30;;;;;;;14.56;100.00;100312.94;5053571;28;20471;-69
2022/10/15 07:26:15;;;;;;;19.30;7.03;;;;;;;14.62;100.00;100313.56;5054342;28;20512;-69
2022/10/15 07:28:41;;;;;;;22.93;7.73;;;;;;;14.59;100.00;100308.78;5053141;28;20469;-69
2022/10/15 07:31:08;;;;;;;10.83;5.77;;;;;;;14.60;100.00;100305.69;5054341;28;20481;-69
2022/10/15 07:33:35;;;;;;;14.93;6.73;;;;;;;14.62;100.00;100310.84;5053551;28;20442;-70
2022/10/15 07:36:03;;;;;;;17.83;6.90;;;;;;;14.62;100.00;100310.84;5054243;28;20466;-70
2022/10/15 07:38:30;;;;;;;15.13;6.67;;;;;;;14.60;100.00;100310.34;5053764;28;20450;-69
2022/10/15 07:40:58;;;;;;;13.43;6.77;;;;;;;14.62;100.00;100310.84;5053306;28;20458;-69
2022/10/15 07:43:26;;;;;;;14.50;6.80;;;;;;;14.66;100.00;100314.50;5053159;28;20439;-70
2022/10/15 07:45:53;;;;;;;13.80;6.20;;;;;;;14.69;100.00;100313.81;5053762;28;20474;-69
2022/10/15 07:48:19;;;;;;;13.03;5.60;;;;;;;14.75;100.00;100311.69;5051045;28;20535;-70
2022/10/15 07:50:46;;;;;;;15.20;7.00;;;;;;;14.76;100.00;100308.59;5051352;28;20543;-70
2022/10/15 07:53:12;;;;;;;13.27;5.70;;;;;;;14.75;100.00;100307.03;5053784;28;20446;-69
2022/10/15 07:55:39;;;;;;;12.83;6.90;;;;;;;14.76;100.00;100308.59;5053781;28;20838;-69
2022/10/15 07:58:07;;;;;;;12.80;5.97;;;;;;;14.85;100.00;100306.59;5053764;28;20449;-70
2022/10/15 08:00:35;;;;;;;12.03;5.87;;;;;;;14.92;100.00;100310.69;5054076;28;20438;-69
2022/10/15 08:03:01;;;;;;;9.43;5.00;;;;;;;14.98;100.00;100314.81;5053719;28;20449;-69
2022/10/15 08:05:27;;;;;;;11.93;5.63;;;;;;;15.07;100.00;100312.78;5053142;28;20462;-70
2022/10/15 08:07:54;;;;;;;10.20;5.70;;;;;;;15.17;100.00;100317.00;5053506;28;20450;-67
2022/10/15 08:10:20;;;;;;;14.17;6.53;;;;;;;15.22;100.00;100316.78;5050661;28;20593;-67
2022/10/15 08:12:47;;;;;;;16.23;6.80;;;;;;;15.25;100.00;100322.38;5049619;28;21804;-69
2022/10/15 08:15:13;;;;;;;15.30;7.53;;;;;;;15.36;100.00;100326.25;5050624;28;20532;-67
2022/10/15 08:17:41;;;;;;;16.07;7.30;;;;;;;15.50;100.00;100325.13;5051816;28;20444;-69
2022/10/15 08:20:08;;;;;;;12.27;5.67;;;;;;;15.61;100.00;100337.19;5051189;28;20879;-69
2022/10/15 08:22:35;;;;;;;11.57;5.80;;;;;;;15.66;100.00;100328.00;5046836;28;20461;-69
2022/10/15 08:25:01;;;;;;;16.23;6.17;;;;;;;15.77;100.00;100329.94;5051040;28;20485;-70
2022/10/15 08:27:28;;;;;;;15.20;6.10;;;;;;;15.91;100.00;100335.06;5053247;28;20487;-70
2022/10/15 08:29:54;;;;;;;11.10;5.47;;;;;;;16.09;100.00;100339.13;5053394;28;20442;-69
2022/10/15 08:32:21;;;;;;;15.13;5.60;;;;;;;16.28;100.00;100340.44;5053152;28;20490;-69
2022/10/15 08:34:48;;;;;;;9.30;4.90;;;;;;;16.48;100.00;100344.97;5052389;28;20454;-69
2022/10/15 08:37:15;;;;;;;10.70;5.07;;;;;;;16.63;100.00;100343.41;5053264;28;20803;-69
2022/10/15 08:39:41;;;;;;;8.77;4.53;;;;;;;16.76;100.00;100342.25;5051443;28;20469;-70
2022/10/15 08:42:16;;;;;;;10.47;4.80;;;;;;;16.97;97.84;100341.25;5050903;28;20516;-70
2022/10/15 08:44:47;;;;;;;12.90;4.87;;;;;;;16.98;97.98;100343.63;5052185;28;20438;-69
2022/10/15 08:47:29;;;;;;;9.67;4.93;;;;;;;17.12;97.88;100349.47;5048350;28;20463;-69
2022/10/15 08:49:59;;;;;;;17.83;4.77;;;;;;;17.21;97.48;100345.78;5044912;28;20486;-69
2022/10/15 08:52:33;;;;;;;11.17;5.40;;;;;;;17.24;96.54;100348.63;5051614;28;20489;-70
2022/10/15 08:55:02;;;;;;;8.47;4.97;;;;;;;17.15;95.43;100348.00;5048316;28;20489;-70
2022/10/15 08:57:38;;;;;;;10.27;5.00;;;;;;;17.24;94.88;100356.03;5050222;28;20466;-69
2022/10/15 09:00:13;;;;;;;8.53;3.93;;;;;;;17.28;95.33;100355.00;5043489;28;20458;-69
2022/10/15 09:02:50;;;;;;;10.40;4.63;;;;;;;17.38;94.66;100365.41;5046090;28;20450;-69
2022/10/15 09:05:28;;;;;;;10.93;4.87;;;;;;;17.29;94.43;100353.84;5048061;28;20521;-70
2022/10/15 09:08:00;;;;;;;15.67;5.47;;;;;;;17.30;94.45;100362.84;5046220;28;20454;-70
2022/10/15 09:10:35;;;;;;;10.17;4.60;;;;;;;17.41;94.64;100358.44;5046323;28;20480;-70
2022/10/15 09:13:07;;;;;;;9.00;5.00;;;;;;;17.50;93.34;100363.75;5051800;28;20446;-70
2022/10/15 09:15:40;;;;;;;9.10;4.10;;;;;;;17.54;93.84;100350.94;5050186;28;20485;-69
2022/10/15 09:18:17;;;;;;;8.53;4.50;;;;;;;17.61;93.70;100359.31;5040252;28;20531;-70
2022/10/15 09:20:45;;;;;;;9.63;4.80;;;;;;;17.57;92.83;100358.44;5033033;28;20437;-69
2022/10/15 09:23:17;;;;;;;7.73;3.40;;;;;;;17.62;92.91;100358.19;5033890;28;20858;-70
2022/10/15 09:25:49;;;;;;;12.10;5.87;;;;;;;17.64;91.90;100364.09;5050784;28;20528;-71
2022/10/15 09:28:20;;;;;;;12.40;4.40;;;;;;;17.58;91.43;100357.31;5050915;28;20450;-68
2022/10/15 09:30:50;;;;;;;13.03;6.07;;;;;;;17.48;93.07;100369.56;5055279;28;20483;-69
2022/10/15 09:33:29;;;;;;;9.50;3.90;;;;;;;17.62;92.36;100363.66;5055092;28;20461;-69
2022/10/15 09:36:06;;;;;;;10.73;4.50;;;;;;;17.73;91.88;100372.13;5056075;28;20531;-69
2022/10/15 09:38:44;;;;;;;11.63;4.33;;;;;;;17.75;91.15;100376.16;5056741;28;20430;-69
2022/10/15 09:41:22;;;;;;;8.43;4.30;;;;;;;17.75;91.19;100369.84;5055488;28;20504;-69
2022/10/15 09:43:51;;;;;;;14.63;5.27;;;;;;;17.84;91.39;100376.78;5056669;28;20426;-69
2022/10/15 09:46:18;;;;;;;13.87;5.50;;;;;;;17.88;90.30;100372.16;5055504;28;20565;-70
2022/10/15 09:48:49;;;;;;;8.83;4.90;;;;;;;17.87;89.95;100380.72;5047476;28;20884;-70
2022/10/15 09:51:25;;;;;;;14.60;4.23;;;;;;;17.90;90.40;100371.81;5054109;28;20485;-70
2022/10/15 09:54:03;;;;;;;10.27;4.30;;;;;;;17.98;90.38;100375.50;5055038;28;20515;-70
2022/10/15 09:56:35;;;;;;;10.30;5.27;;;;;;;18.13;89.76;100370.00;5056267;28;20462;-69
2022/10/15 09:59:02;;;;;;;9.13;4.10;;;;;;;18.14;88.14;100377.06;5055571;28;20515;-70
2022/10/15 10:01:30;;;;;;;13.57;4.93;;;;;;;18.12;89.04;100378.56;5056185;28;20520;-70
2022/10/15 10:04:11;;;;;;;10.13;4.60;;;;;;;18.23;89.13;100382.34;5054980;28;20502;-70
2022/10/15 10:06:46;;;;;;;9.83;4.20;;;;;;;18.30;89.19;100382.50;5055988;28;20469;-70
2022/10/15 10:09:17;;;;;;;8.63;3.83;;;;;;;18.32;89.28;100382.94;5054837;28;20461;-70
2022/10/15 10:11:48;;;;;;;9.53;4.07;;;;;;;18.25;88.97;100385.53;5055868;28;20474;-69
2022/10/15 10:14:23;;;;;;;8.60;3.33;;;;;;;18.22;89.11;100388.97;5053268;28;20458;-69
2022/10/15 10:17:16;;;;;;;9.40;4.63;;;;;;;18.28;89.11;100384.81;5055645;28;20843;-69
2022/10/15 10:19:43;;;;;;;9.00;3.90;;;;;;;18.35;89.41;100386.91;5053765;28;20462;-71
2022/10/15 10:22:17;;;;;;;8.40;3.43;;;;;;;18.45;88.18;100388.28;5054720;28;20833;-69
2022/10/15 10:24:44;;;;;;;10.47;3.57;;;;;;;18.51;87.66;100389.63;5049745;28;20451;-68
2022/10/15 10:27:20;;;;;;;6.30;3.20;;;;;;;18.49;88.72;100391.91;5039298;28;20839;-70
2022/10/15 10:29:52;;;;;;;9.93;4.00;;;;;;;18.55;88.45;100374.81;5048764;28;20520;-67
2022/10/15 10:32:20;;;;;;;8.90;3.50;;;;;;;18.63;88.19;100386.72;5052116;28;20868;-69
2022/10/15 10:34:47;;;;;;;10.00;3.10;;;;;;;18.68;87.10;100389.19;5051566;28;20458;-70
2022/10/15 10:37:15;;;;;;;6.13;3.07;;;;;;;18.84;86.86;100383.66;5053579;28;20470;-69
2022/10/15 10:39:43;;;;;;;6.27;2.63;;;;;;;18.92;86.93;100390.09;5049658;28;20504;-70
2022/10/15 10:42:25;;;;;;;7.07;3.00;;;;;;;19.14;86.13;100392.09;5051691;28;20464;-69
2022/10/15 10:44:53;;;;;;;7.70;3.23;;;;;;;19.25;84.62;100387.56;5052801;28;20513;-69
2022/10/15 10:47:21;;;;;;;8.83;3.33;;;;;;;19.29;84.48;100393.94;5051857;28;21590;-70
2022/10/15 10:49:50;;;;;;;8.40;3.07;;;;;;;19.30;84.71;100390.03;5053527;28;20458;-69
2022/10/15 10:52:26;;;;;;;7.27;3.40;;;;;;;19.25;84.63;100398.56;5049287;28;20576;-71
2022/10/15 10:55:00;;;;;;;7.30;2.80;;;;;;;19.23;83.86;100398.16;5035099;28;20476;-70
2022/10/15 10:57:36;;;;;;;6.87;2.83;;;;;;;19.06;84.13;100393.91;5040068;28;20458;-70
2022/10/15 11:00:05;;;;;;;7.10;3.70;;;;;;;19.18;84.54;100389.41;5051559;28;20907;-68
2022/10/15 11:02:34;;;;;;;6.20;2.87;;;;;;;19.18;84.47;100390.22;5054302;28;20507;-68
2022/10/15 11:05:01;;;;;;;7.53;4.13;;;;;;;19.18;83.49;100390.22;5054041;28;20565;-71
2022/10/15 11:07:38;;;;;;;6.40;3.00;;;;;;;19.21;84.25;100394.16;5053789;28;20473;-72
2022/10/15 11:10:11;;;;;;;6.70;3.13;;;;;;;19.11;84.33;100387.31;5052894;28;20453;-71
2022/10/15 11:12:56;;;;;;;6.30;3.13;;;;;;;19.05;84.17;100388.78;5054221;28;20477;-73
2022/10/15 11:15:33;;;;;;;7.17;3.10;;;;;;;19.00;84.20;100394.56;5052197;28;20474;-71
2022/10/15 11:18:13;;;;;;;9.63;3.83;;;;;;;19.11;83.98;100381.81;5052446;28;20458;-72
2022/10/15 11:20:49;;;;;;;10.27;3.90;;;;;;;19.16;83.83;100392.50;5052160;28;20462;-69